createdAt,value
2023-05-09T00:01:20.718Z,64.80
2023-05-09T00:03:47.609Z,64.80
2023-05-09T00:06:15.486Z,65.00
2023-05-09T00:08:42.251Z,65.10
2023-05-09T00:11:09.048Z,65.10
2023-05-09T00:13:35.821Z,65.10
2023-05-09T00:16:03.560Z,65.00
2023-05-09T00:18:31.145Z,65.00
2023-05-09T00:20:58.000Z,65.10
2023-05-09T00:23:24.790Z,65.10
2023-05-09T00:25:51.556Z,65.30
2023-05-09T00:28:18.233Z,65.10
2023-05-09T00:30:44.938Z,65.00
2023-05-09T00:33:11.887Z,65.10
2023-05-09T00:35:38.662Z,65.00
2023-05-09T00:38:05.350Z,65.10
2023-05-09T00:40:32.026Z,65.00
2023-05-09T00:43:01.813Z,65.00
2023-05-09T00:47:55.866Z,65.20
2023-05-09T00:50:22.742Z,65.20
2023-05-09T00:52:50.241Z,65.30
2023-05-09T00:55:18.223Z,65.40
2023-05-09T00:57:45.722Z,65.40
2023-05-09T01:00:13.506Z,65.30
2023-05-09T01:02:45.125Z,65.40
2023-05-09T01:05:12.736Z,65.60
2023-05-09T01:08:10.500Z,65.50
2023-05-09T01:10:48.279Z,65.70
2023-05-09T01:13:27.193Z,65.50
2023-05-09T01:16:19.672Z,65.60
2023-05-09T01:18:56.181Z,65.40
2023-05-09T01:21:29.349Z,65.50
2023-05-09T01:24:34.009Z,65.50
2023-05-09T01:27:39.255Z,65.70
2023-05-09T01:30:08.190Z,65.50
2023-05-09T01:32:37.991Z,65.60
2023-05-09T01:35:07.574Z,65.80
2023-05-09T01:37:39.582Z,65.70
2023-05-09T01:40:16.678Z,65.80
2023-05-09T01:42:52.136Z,65.80
2023-05-09T01:45:20.600Z,65.90
2023-05-09T01:47:48.756Z,65.70
2023-05-09T01:50:17.037Z,65.70
2023-05-09T01:52:48.037Z,65.60
2023-05-09T01:55:16.768Z,65.70
2023-05-09T01:57:44.563Z,65.70
2023-05-09T02:00:13.274Z,65.70
2023-05-09T02:02:40.536Z,65.70
2023-05-09T02:05:09.345Z,65.70
2023-05-09T02:07:36.624Z,65.60
2023-05-09T02:10:03.815Z,65.50
2023-05-09T02:12:34.021Z,65.50
2023-05-09T02:15:00.627Z,65.40
2023-05-09T02:17:30.779Z,65.40
2023-05-09T02:19:57.611Z,65.50
2023-05-09T02:22:24.196Z,65.40
2023-05-09T02:24:50.835Z,65.30
2023-05-09T02:27:17.584Z,65.30
2023-05-09T02:29:52.552Z,65.30
2023-05-09T02:32:22.056Z,65.30
2023-05-09T02:34:49.693Z,65.30
2023-05-09T02:37:16.418Z,65.30
2023-05-09T02:39:43.136Z,65.30
2023-05-09T02:42:11.124Z,65.30
2023-05-09T02:44:38.863Z,65.30
2023-05-09T02:47:06.588Z,65.20
2023-05-09T02:49:34.557Z,65.20
2023-05-09T02:52:01.601Z,65.20
2023-05-09T02:54:28.398Z,65.20
2023-05-09T02:56:55.066Z,65.10
2023-05-09T02:59:21.906Z,65.10
2023-05-09T03:01:48.655Z,65.10
2023-05-09T03:04:16.547Z,65.10
2023-05-09T03:06:43.315Z,65.10
2023-05-09T03:09:09.898Z,65.20
2023-05-09T03:11:36.821Z,65.20
2023-05-09T03:14:04.016Z,65.20
2023-05-09T03:16:31.095Z,65.10
2023-05-09T03:18:57.721Z,65.20
2023-05-09T03:21:24.382Z,65.10
2023-05-09T03:23:52.271Z,65.10
2023-05-09T03:26:18.851Z,65.00
2023-05-09T03:28:46.291Z,65.00
2023-05-09T03:31:12.909Z,65.00
2023-05-09T03:33:39.639Z,64.90
2023-05-09T03:36:06.466Z,64.90
2023-05-09T03:38:33.070Z,64.90
2023-05-09T03:40:59.654Z,64.90
2023-05-09T03:43:26.484Z,64.90
2023-05-09T03:45:53.061Z,65.00
2023-05-09T03:48:19.733Z,64.90
2023-05-09T03:50:47.411Z,64.90
2023-05-09T03:53:14.092Z,65.00
2023-05-09T03:55:41.001Z,64.90
2023-05-09T03:58:07.632Z,65.00
2023-05-09T04:00:34.478Z,64.90
2023-05-09T04:03:01.134Z,64.90
2023-05-09T04:05:27.868Z,64.90
2023-05-09T04:07:54.528Z,64.90
2023-05-09T04:10:21.201Z,64.80
2023-05-09T04:12:47.772Z,64.80
2023-05-09T04:15:14.649Z,64.80
2023-05-09T04:17:41.510Z,64.80
2023-05-09T04:20:08.883Z,64.90
2023-05-09T04:22:36.205Z,64.80
2023-05-09T04:25:04.091Z,64.80
2023-05-09T04:27:31.079Z,64.80
2023-05-09T04:29:57.771Z,64.90
2023-05-09T04:32:27.037Z,64.80
2023-05-09T04:34:53.656Z,64.70
2023-05-09T04:37:20.228Z,64.80
2023-05-09T04:39:46.896Z,64.80
2023-05-09T04:42:13.577Z,64.80
2023-05-09T04:44:40.540Z,64.80
2023-05-09T04:47:07.184Z,64.80
2023-05-09T04:49:33.754Z,64.80
2023-05-09T04:52:00.509Z,64.80
2023-05-09T04:54:27.263Z,65.20
2023-05-09T04:57:00.268Z,65.20
2023-05-09T04:59:33.276Z,65.00
2023-05-09T05:02:00.073Z,65.20
2023-05-09T05:04:26.951Z,65.30
2023-05-09T05:06:53.655Z,65.20
2023-05-09T05:09:20.312Z,65.30
2023-05-09T05:11:58.745Z,65.30
2023-05-09T05:14:27.652Z,65.60
2023-05-09T05:16:54.316Z,65.20
2023-05-09T05:19:21.096Z,65.40
2023-05-09T05:21:47.713Z,65.20
2023-05-09T05:24:14.400Z,65.00
2023-05-09T05:26:41.039Z,65.20
2023-05-09T05:29:07.744Z,65.00
2023-05-09T05:31:34.497Z,65.00
2023-05-09T05:34:01.075Z,65.00
2023-05-09T05:36:27.697Z,65.00
2023-05-09T05:38:55.494Z,65.10
2023-05-09T05:41:22.610Z,64.90
2023-05-09T05:43:49.206Z,64.80
2023-05-09T05:46:15.909Z,64.90
2023-05-09T05:48:42.529Z,64.90
2023-05-09T05:51:09.221Z,64.90
2023-05-09T05:53:35.844Z,64.60
2023-05-09T05:56:02.676Z,64.80
2023-05-09T05:58:29.241Z,65.00
2023-05-09T06:00:55.977Z,64.80
2023-05-09T06:03:22.741Z,64.90
2023-05-09T06:05:49.600Z,64.90
2023-05-09T06:08:16.193Z,64.80
2023-05-09T06:10:42.799Z,64.90
2023-05-09T06:13:09.401Z,64.80
2023-05-09T06:15:36.053Z,64.90
2023-05-09T06:18:02.709Z,64.90
2023-05-09T06:20:29.327Z,65.00
2023-05-09T06:22:55.946Z,65.00
2023-05-09T06:25:22.550Z,65.00
2023-05-09T06:27:49.165Z,65.00
2023-05-09T06:30:25.626Z,65.00
2023-05-09T06:32:52.721Z,64.90
2023-05-09T06:35:19.318Z,65.00
2023-05-09T06:37:48.251Z,65.00
2023-05-09T06:40:15.923Z,65.10
2023-05-09T06:42:42.522Z,65.20
2023-05-09T06:45:09.329Z,65.20
2023-05-09T06:47:35.964Z,65.10
2023-05-09T06:50:02.578Z,65.20
2023-05-09T06:52:29.162Z,65.20
2023-05-09T06:54:55.724Z,65.20
2023-05-09T06:57:22.412Z,65.30
2023-05-09T06:59:49.002Z,65.20
2023-05-09T07:02:15.954Z,65.30
2023-05-09T07:04:42.567Z,65.30
2023-05-09T07:07:09.197Z,65.50
2023-05-09T07:09:35.842Z,65.40
2023-05-09T07:12:02.541Z,65.50
2023-05-09T07:14:29.174Z,65.60
2023-05-09T07:17:05.183Z,65.60
2023-05-09T07:27:11.031Z,65.60
2023-05-09T07:29:37.856Z,66.20
2023-05-09T07:32:05.659Z,66.20
2023-05-09T07:34:32.488Z,66.20
2023-05-09T07:36:59.279Z,66.40
2023-05-09T07:39:26.084Z,66.50
2023-05-09T07:41:52.776Z,66.50
2023-05-09T07:44:20.505Z,66.50
2023-05-09T08:16:17.447Z,66.60
2023-05-09T08:18:44.557Z,68.30
2023-05-09T08:21:11.219Z,67.50
2023-05-09T08:23:37.869Z,67.50
2023-05-09T08:26:04.720Z,67.40
2023-05-09T08:28:31.417Z,67.50
2023-05-09T08:30:58.434Z,67.40
2023-05-09T08:33:25.814Z,68.00
2023-05-09T08:35:53.185Z,67.80
2023-05-09T08:38:21.294Z,67.70
2023-05-09T08:40:48.317Z,67.80
2023-05-09T08:43:16.437Z,67.90
2023-05-09T08:45:47.560Z,67.80
2023-05-09T08:48:16.185Z,67.70
2023-05-09T08:50:43.725Z,67.90
2023-05-09T08:53:11.819Z,68.00
2023-05-09T08:55:39.601Z,67.80
2023-05-09T08:58:08.214Z,67.90
2023-05-09T09:00:36.573Z,67.90
2023-05-09T09:03:04.103Z,68.30
2023-05-09T09:05:41.247Z,68.10
2023-05-09T09:08:08.801Z,68.20
2023-05-09T09:10:35.576Z,68.00
2023-05-09T09:13:04.968Z,68.10
2023-05-09T09:15:35.260Z,68.10
2023-05-09T09:18:09.128Z,68.10
2023-05-09T09:20:37.309Z,68.10
2023-05-09T09:23:10.626Z,68.20
2023-05-09T09:25:39.989Z,68.30
2023-05-09T09:28:06.565Z,68.90
2023-05-09T09:30:33.319Z,68.50
2023-05-09T09:33:00.503Z,68.30
2023-05-09T09:35:28.306Z,68.30
2023-05-09T09:38:01.058Z,68.30
2023-05-09T09:40:27.659Z,68.40
2023-05-09T09:42:54.420Z,68.40
2023-05-09T09:45:21.178Z,68.60
2023-05-09T09:47:48.629Z,68.60
2023-05-09T09:52:57.667Z,68.60
2023-05-09T09:55:24.779Z,68.60
2023-05-09T09:57:51.656Z,68.80
2023-05-09T10:00:19.426Z,68.70
2023-05-09T10:02:49.823Z,68.70
2023-05-09T10:05:26.918Z,68.70
2023-05-09T10:07:57.741Z,68.70
2023-05-09T10:10:26.692Z,68.80
2023-05-09T10:12:55.983Z,69.10
2023-05-09T10:15:22.795Z,69.20
2023-05-09T10:17:53.544Z,69.20
2023-05-09T10:20:20.657Z,69.40
2023-05-09T10:22:47.577Z,69.30
2023-05-09T10:25:17.342Z,69.10
2023-05-09T10:27:45.384Z,69.40
2023-05-09T10:30:17.525Z,69.30
2023-05-09T10:32:47.057Z,69.30
2023-05-09T10:35:14.175Z,69.40
2023-05-09T10:37:41.373Z,69.60
2023-05-09T10:40:08.805Z,69.40
2023-05-09T10:42:35.632Z,69.20
2023-05-09T10:45:02.903Z,69.30
2023-05-09T10:47:29.827Z,69.20
2023-05-09T10:49:57.542Z,69.30
2023-05-09T10:52:24.234Z,69.40
2023-05-09T10:55:01.808Z,69.20
2023-05-09T10:57:29.311Z,69.50
2023-05-09T10:59:56.639Z,69.20
2023-05-09T11:02:31.136Z,69.30
2023-05-09T11:05:17.917Z,69.60
2023-05-09T11:07:44.794Z,69.40
2023-05-09T11:10:17.164Z,69.30
2023-05-09T11:12:56.808Z,69.40
2023-05-09T11:15:24.508Z,69.40
2023-05-09T11:18:04.701Z,69.40
2023-05-09T11:20:33.492Z,69.40
2023-05-09T11:23:01.141Z,69.30
2023-05-09T11:25:28.987Z,69.50
2023-05-09T11:28:00.651Z,69.50
2023-05-09T11:30:40.721Z,69.90
2023-05-09T11:33:21.033Z,69.60
2023-05-09T11:35:48.290Z,69.70
2023-05-09T11:38:20.383Z,69.70
2023-05-09T11:40:47.128Z,69.80
2023-05-09T11:43:13.870Z,69.90
2023-05-09T11:45:40.836Z,69.70
2023-05-09T11:48:10.609Z,69.90
2023-05-09T11:50:37.383Z,69.90
2023-05-09T11:53:04.038Z,69.90
2023-05-09T11:55:32.564Z,69.80
2023-05-09T11:57:59.324Z,69.90
2023-05-09T12:00:26.524Z,70.20
2023-05-09T12:02:54.007Z,70.00
2023-05-09T12:05:21.474Z,70.00
2023-05-09T12:07:48.448Z,70.00
2023-05-09T12:10:17.144Z,70.10
2023-05-09T12:12:47.804Z,69.90
2023-05-09T12:15:15.248Z,70.10
2023-05-09T12:17:42.966Z,70.20
2023-05-09T12:20:09.908Z,70.20
2023-05-09T12:22:39.467Z,70.20
2023-05-09T12:25:07.596Z,70.40
2023-05-09T12:27:37.961Z,70.20
2023-05-09T12:30:08.706Z,70.30
2023-05-09T12:32:36.709Z,70.30
2023-05-09T12:35:03.521Z,70.40
2023-05-09T12:37:30.709Z,70.30
2023-05-09T12:40:04.880Z,70.30
2023-05-09T12:42:32.172Z,70.30
2023-05-09T12:44:58.900Z,70.30
2023-05-09T12:47:29.457Z,70.50
2023-05-09T12:49:59.449Z,70.30
2023-05-09T12:52:26.813Z,70.20
2023-05-09T12:54:53.410Z,70.40
2023-05-09T12:57:21.519Z,70.40
2023-05-09T12:59:48.254Z,70.60
2023-05-09T13:02:16.397Z,70.40
2023-05-09T13:04:43.125Z,70.40
2023-05-09T13:07:13.062Z,70.50
2023-05-09T13:09:54.331Z,70.50
2023-05-09T13:12:20.927Z,71.40
2023-05-09T13:14:47.637Z,70.70
2023-05-09T13:17:14.279Z,70.60
2023-05-09T13:19:41.094Z,70.60
2023-05-09T13:22:07.669Z,70.60
2023-05-09T13:24:34.252Z,70.60
2023-05-09T13:27:00.910Z,70.80
2023-05-09T13:29:27.499Z,70.60
2023-05-09T13:31:56.835Z,70.70
2023-05-09T13:34:23.416Z,70.70
2023-05-09T13:36:50.176Z,70.70
2023-05-09T13:39:16.778Z,70.70
2023-05-09T13:41:43.731Z,70.70
2023-05-09T13:44:10.381Z,70.60
2023-05-09T13:46:37.325Z,70.60
2023-05-09T13:49:06.753Z,70.60
2023-05-09T13:51:33.658Z,70.60
2023-05-09T13:54:00.366Z,70.60
2023-05-09T13:56:27.072Z,70.60
2023-05-09T13:58:53.666Z,70.70
2023-05-09T14:01:20.414Z,70.80
2023-05-09T14:03:49.190Z,70.70
2023-05-09T14:06:15.965Z,70.80
2023-05-09T14:08:42.665Z,70.70
2023-05-09T14:11:09.330Z,70.70
2023-05-09T14:13:35.930Z,70.70
2023-05-09T14:16:04.951Z,70.80
2023-05-09T14:18:31.932Z,70.90
2023-05-09T14:20:58.809Z,70.80
2023-05-09T14:23:25.435Z,70.90
2023-05-09T14:25:52.082Z,70.70
2023-05-09T14:28:18.773Z,70.90
2023-05-09T14:30:45.421Z,70.90
2023-05-09T14:33:12.046Z,70.80
2023-05-09T14:35:41.217Z,70.80
2023-05-09T14:38:08.467Z,70.60
2023-05-09T14:40:36.351Z,70.80
2023-05-09T14:43:03.403Z,70.80
2023-05-09T14:45:30.349Z,70.70
2023-05-09T14:47:57.892Z,70.80
2023-05-09T14:50:24.559Z,70.80
2023-05-09T14:52:51.530Z,70.70
2023-05-09T14:55:19.850Z,70.70
2023-05-09T14:57:46.455Z,70.60
2023-05-09T15:00:21.343Z,70.70
2023-05-09T15:02:49.817Z,70.70
2023-05-09T15:05:16.897Z,70.60
2023-05-09T15:07:43.504Z,70.70
2023-05-09T15:10:10.274Z,70.70
2023-05-09T15:12:36.892Z,70.70
2023-05-09T15:15:12.760Z,70.70
2023-05-09T15:17:39.498Z,70.70
2023-05-09T15:20:06.666Z,70.90
2023-05-09T15:22:33.927Z,70.70
2023-05-09T15:25:00.857Z,70.70
2023-05-09T15:27:27.580Z,70.70
2023-05-09T15:29:54.796Z,70.60
2023-05-09T15:32:21.647Z,70.80
2023-05-09T15:34:48.361Z,70.80
2023-05-09T15:37:15.002Z,70.80
2023-05-09T15:39:43.542Z,71.00
2023-05-09T15:42:12.246Z,71.10
2023-05-09T15:44:40.405Z,71.20
2023-05-09T15:47:07.461Z,71.20
2023-05-09T15:49:36.877Z,71.30
2023-05-09T15:52:04.105Z,71.40
2023-05-09T15:54:31.835Z,71.40
2023-05-09T15:56:59.326Z,71.30
2023-05-09T15:59:26.352Z,71.40
2023-05-09T16:01:54.708Z,71.40
2023-05-09T16:04:21.703Z,72.20
2023-05-09T16:06:48.994Z,71.80
2023-05-09T16:09:15.718Z,71.80
2023-05-09T16:11:42.448Z,71.90
2023-05-09T16:14:12.449Z,71.70
2023-05-09T16:16:39.596Z,71.80
2023-05-09T16:19:06.740Z,71.80
2023-05-09T16:21:33.461Z,71.90
2023-05-09T16:24:02.845Z,71.90
2023-05-09T16:26:29.552Z,71.90
2023-05-09T16:28:56.496Z,72.00
2023-05-09T16:31:26.445Z,72.00
2023-05-09T16:33:54.098Z,72.00
2023-05-09T16:36:20.965Z,72.00
2023-05-09T16:38:47.722Z,72.00
2023-05-09T16:41:14.469Z,72.10
2023-05-09T16:43:42.882Z,72.00
2023-05-09T16:46:09.739Z,72.00
2023-05-09T16:48:36.505Z,71.90
2023-05-09T16:51:03.316Z,71.80
2023-05-09T16:53:30.088Z,71.80
2023-05-09T16:55:56.933Z,71.70
2023-05-09T16:58:25.249Z,71.70
2023-05-09T17:00:52.079Z,71.60
2023-05-09T17:03:18.736Z,71.60
2023-05-09T17:05:45.339Z,71.50
2023-05-09T17:08:12.084Z,71.40
2023-05-09T17:10:40.766Z,71.40
2023-05-09T17:13:08.862Z,71.40
2023-05-09T17:15:35.733Z,71.30
2023-05-09T17:18:03.102Z,71.30
2023-05-09T17:20:29.899Z,71.30
2023-05-09T17:22:56.880Z,71.30
2023-05-09T17:25:23.737Z,71.40
2023-05-09T17:27:52.732Z,71.30
2023-05-09T17:30:22.157Z,71.40
2023-05-09T17:32:52.869Z,71.40
2023-05-09T17:35:20.777Z,71.50
2023-05-09T17:37:47.477Z,71.50
2023-05-09T17:40:14.862Z,71.50
2023-05-09T17:42:42.126Z,71.50
2023-05-09T17:45:10.084Z,71.50
2023-05-09T17:47:38.632Z,71.50
2023-05-09T17:50:05.456Z,71.50
2023-05-09T17:52:33.649Z,71.60
2023-05-09T17:55:00.985Z,71.50
2023-05-09T17:57:28.188Z,71.50
2023-05-09T17:59:56.009Z,71.60
2023-05-09T18:02:24.060Z,71.60
2023-05-09T18:04:52.405Z,71.40
2023-05-09T18:07:19.231Z,71.40
2023-05-09T18:09:46.075Z,71.40
2023-05-09T18:12:12.704Z,71.40
2023-05-09T18:14:39.365Z,71.30
2023-05-09T18:17:07.266Z,71.30
2023-05-09T18:19:33.984Z,71.20
2023-05-09T18:22:00.725Z,71.20
2023-05-09T18:24:27.418Z,71.10
2023-05-09T18:26:53.998Z,71.10
2023-05-09T18:29:20.705Z,71.00
2023-05-09T18:31:47.326Z,70.90
2023-05-09T18:34:14.043Z,70.90
2023-05-09T18:36:40.933Z,70.90
2023-05-09T18:39:08.844Z,71.00
2023-05-09T18:41:35.490Z,71.00
2023-05-09T18:44:02.085Z,70.90
2023-05-09T18:46:31.451Z,71.00
2023-05-09T18:48:58.059Z,70.90
2023-05-09T18:51:25.286Z,70.90
2023-05-09T18:53:52.292Z,70.90
2023-05-09T18:56:22.290Z,70.80
2023-05-09T18:58:50.355Z,70.80
2023-05-09T19:01:17.525Z,70.90
2023-05-09T19:03:46.095Z,70.80
2023-05-09T19:06:13.636Z,70.80
2023-05-09T19:08:43.076Z,70.80
2023-05-09T19:11:11.551Z,70.90
2023-05-09T19:13:40.804Z,70.80
2023-05-09T19:16:08.069Z,70.80
2023-05-09T19:18:34.797Z,70.80
2023-05-09T19:23:49.257Z,70.60
2023-05-09T19:26:16.722Z,70.60
2023-05-09T19:28:44.340Z,70.50
2023-05-09T19:31:11.081Z,70.50
2023-05-09T19:33:38.163Z,70.40
2023-05-09T19:36:04.891Z,70.50
2023-05-09T19:38:31.762Z,70.50
2023-05-09T19:40:59.331Z,70.50
2023-05-09T19:43:26.050Z,70.40
2023-05-09T19:45:53.958Z,70.30
2023-05-09T19:48:20.584Z,70.30
2023-05-09T19:50:47.319Z,70.20
2023-05-09T19:53:13.984Z,70.30
2023-05-09T19:55:41.170Z,70.30
2023-05-09T19:58:07.885Z,70.30
2023-05-09T20:00:35.981Z,70.30
2023-05-09T20:03:04.326Z,70.30
2023-05-09T20:08:14.937Z,70.10
2023-05-09T20:10:41.531Z,70.10
2023-05-09T20:13:08.414Z,70.00
2023-05-09T20:15:35.029Z,70.00
2023-05-09T20:18:03.684Z,70.10
2023-05-09T20:20:32.201Z,70.10
2023-05-09T20:22:59.472Z,70.10
2023-05-09T20:25:27.320Z,70.10
2023-05-09T20:27:53.960Z,70.00
2023-05-09T20:30:21.081Z,70.00
2023-05-09T20:32:48.150Z,70.00
2023-05-09T20:35:14.831Z,70.00
2023-05-09T20:37:41.469Z,69.90
2023-05-09T21:29:14.490Z,69.80
2023-05-09T21:31:41.127Z,70.20
2023-05-09T21:34:10.301Z,69.50
2023-05-09T21:36:38.366Z,69.50
2023-05-09T21:39:09.022Z,69.50
2023-05-09T21:41:39.520Z,69.40
2023-05-09T21:44:07.408Z,70.00
2023-05-09T21:46:34.591Z,69.30
2023-05-09T21:49:01.556Z,69.40
2023-05-09T21:51:28.629Z,69.30
2023-05-09T21:53:55.456Z,69.30
2023-05-09T21:56:22.540Z,69.30
2023-05-09T21:58:49.112Z,69.30
2023-05-09T22:01:16.525Z,69.90
2023-05-09T22:03:43.279Z,69.20
2023-05-09T22:06:09.910Z,69.20
2023-05-09T22:08:36.546Z,69.20
2023-05-09T22:11:03.145Z,69.50
2023-05-09T22:13:29.767Z,69.30
2023-05-09T22:15:56.590Z,69.30
2023-05-09T22:18:23.519Z,69.30
2023-05-09T22:20:50.269Z,69.20
2023-05-09T22:23:16.830Z,69.20
2023-05-09T22:25:43.394Z,69.20
2023-05-09T22:28:10.060Z,69.30
2023-05-09T22:30:37.208Z,69.20
2023-05-09T22:33:03.934Z,69.20
2023-05-09T22:35:30.615Z,69.20
2023-05-09T22:37:57.262Z,69.30
2023-05-09T22:40:23.845Z,69.20
2023-05-09T22:42:50.403Z,69.20
2023-05-09T22:45:16.990Z,69.20
2023-05-09T22:47:44.488Z,69.20
2023-05-09T22:50:11.595Z,69.20
2023-05-09T22:52:38.483Z,69.20
2023-05-09T22:55:05.355Z,69.20
2023-05-09T22:57:31.949Z,69.20
2023-05-09T22:59:58.537Z,69.20
2023-05-09T23:02:25.591Z,69.20
2023-05-09T23:04:52.368Z,69.20
2023-05-09T23:07:19.017Z,69.20
2023-05-09T23:09:45.779Z,69.70
2023-05-09T23:12:12.375Z,69.20
2023-05-09T23:14:39.212Z,69.20
2023-05-09T23:17:05.868Z,69.20
2023-05-09T23:19:32.801Z,69.20
2023-05-09T23:21:59.464Z,69.10
2023-05-09T23:24:26.063Z,69.20
2023-05-09T23:26:53.792Z,69.20
2023-05-09T23:29:22.832Z,69.20
2023-05-09T23:31:49.763Z,69.20
2023-05-09T23:34:17.131Z,69.20
2023-05-09T23:36:43.786Z,69.10
2023-05-09T23:39:10.703Z,69.10
2023-05-09T23:41:37.398Z,69.10
2023-05-09T23:44:04.146Z,69.10
2023-05-09T23:46:31.014Z,69.10
2023-05-09T23:48:57.708Z,69.10
2023-05-09T23:51:24.315Z,69.10
2023-05-09T23:53:51.085Z,69.00
2023-05-09T23:56:17.687Z,69.00
2023-05-09T23:58:44.324Z,69.00
